sensor_id;sensor_type;location;lat;lon;timestamp;temperature;humidity
7399;DHT22;3740;50.700;7.184;2022-10-31T00:02:08;14.00;99.90
7399;DHT22;3740;50.700;7.184;2022-10-31T00:04:44;14.10;99.90
7399;DHT22;3740;50.700;7.184;2022-10-31T00:07:19;14.10;99.90
7399;DHT22;3740;50.700;7.184;2022-10-31T00:09:45;14.20;99.90
7399;DHT22;3740;50.700;7.184;2022-10-31T00:12:10;14.20;99.90
7399;DHT22;3740;50.700;7.184;2022-10-31T00:14:36;14.20;99.90
7399;DHT22;3740;50.700;7.184;2022-10-31T00:17:06;14.20;99.90
7399;DHT22;3740;50.700;7.184;2022-10-31T00:19:36;14.10;99.90
7399;DHT22;3740;50.700;7.184;2022-10-31T00:22:02;14.20;99.90
7399;DHT22;3740;50.700;7.184;2022-10-31T00:24:27;14.20;99.90
7399;DHT22;3740;50.700;7.184;2022-10-31T00:26:53;14.10;99.90
7399;DHT22;3740;50.700;7.184;2022-10-31T00:29:18;14.10;99.90
7399;DHT22;3740;50.700;7.184;2022-10-31T00:31:44;14.10;99.90
7399;DHT22;3740;50.700;7.184;2022-10-31T00:34:09;14.00;99.90
7399;DHT22;3740;50.700;7.184;2022-10-31T00:36:35;14.00;99.90
7399;DHT22;3740;50.700;7.184;2022-10-31T00:39:01;14.00;99.90
7399;DHT22;3740;50.700;7.184;2022-10-31T00:41:26;13.90;99.90
7399;DHT22;3740;50.700;7.184;2022-10-31T00:43:52;13.90;99.90
7399;DHT22;3740;50.700;7.184;2022-10-31T00:46:17;14.00;99.90
7399;DHT22;3740;50.700;7.184;2022-10-31T00:48:43;14.00;99.90
7399;DHT22;3740;50.700;7.184;2022-10-31T00:51:09;14.10;99.90
7399;DHT22;3740;50.700;7.184;2022-10-31T00:53:35;14.10;99.90
7399;DHT22;3740;50.700;7.184;2022-10-31T00:56:01;14.10;99.90
7399;DHT22;3740;50.700;7.184;2022-10-31T00:58:26;14.00;99.90
7399;DHT22;3740;50.700;7.184;2022-10-31T01:00:52;14.00;99.90
7399;DHT22;3740;50.700;7.184;2022-10-31T01:03:25;14.10;99.90
7399;DHT22;3740;50.700;7.184;2022-10-31T01:05:57;14.00;99.90
7399;DHT22;3740;50.700;7.184;2022-10-31T01:08:23;14.00;99.90
7399;DHT22;3740;50.700;7.184;2022-10-31T01:11:00;13.90;99.90
7399;DHT22;3740;50.700;7.184;2022-10-31T01:13:26;13.90;99.90
7399;DHT22;3740;50.700;7.184;2022-10-31T01:15:56;13.90;99.90
7399;DHT22;3740;50.700;7.184;2022-10-31T01:18:22;13.90;99.90
7399;DHT22;3740;50.700;7.184;2022-10-31T01:21:07;13.80;99.90
7399;DHT22;3740;50.700;7.184;2022-10-31T01:23:33;13.80;99.90
7399;DHT22;3740;50.700;7.184;2022-10-31T01:26:05;13.90;99.90
7399;DHT22;3740;50.700;7.184;2022-10-31T01:28:31;13.90;99.90
7399;DHT22;3740;50.700;7.184;2022-10-31T01:31:04;14.00;99.90
7399;DHT22;3740;50.700;7.184;2022-10-31T01:33:30;14.00;99.90
7399;DHT22;3740;50.700;7.184;2022-10-31T01:35:57;14.00;99.90
7399;DHT22;3740;50.700;7.184;2022-10-31T01:38:23;14.00;99.90
7399;DHT22;3740;50.700;7.184;2022-10-31T01:40:49;14.00;99.90
7399;DHT22;3740;50.700;7.184;2022-10-31T01:43:16;14.00;99.90
7399;DHT22;3740;50.700;7.184;2022-10-31T01:45:44;14.00;99.90
7399;DHT22;3740;50.700;7.184;2022-10-31T01:48:18;13.90;99.90
7399;DHT22;3740;50.700;7.184;2022-10-31T01:50:47;13.90;99.90
7399;DHT22;3740;50.700;7.184;2022-10-31T01:53:15;13.90;99.90
7399;DHT22;3740;50.700;7.184;2022-10-31T01:55:44;13.80;99.90
7399;DHT22;3740;50.700;7.184;2022-10-31T01:58:16;13.80;99.90
7399;DHT22;3740;50.700;7.184;2022-10-31T02:00:47;13.70;99.90
7399;DHT22;3740;50.700;7.184;2022-10-31T02:03:15;13.70;99.90
7399;DHT22;3740;50.700;7.184;2022-10-31T02:05:41;13.70;99.90
7399;DHT22;3740;50.700;7.184;2022-10-31T02:08:23;13.80;99.90
7399;DHT22;3740;50.700;7.184;2022-10-31T02:10:50;13.80;99.90
7399;DHT22;3740;50.700;7.184;2022-10-31T02:13:16;13.80;99.90
7399;DHT22;3740;50.700;7.184;2022-10-31T02:15:44;13.90;99.90
7399;DHT22;3740;50.700;7.184;2022-10-31T02:18:10;13.80;99.90
7399;DHT22;3740;50.700;7.184;2022-10-31T02:27:02;13.80;99.90
7399;DHT22;3740;50.700;7.184;2022-10-31T02:32:24;13.80;99.90
7399;DHT22;3740;50.700;7.184;2022-10-31T02:35:17;13.80;99.90
7399;DHT22;3740;50.700;7.184;2022-10-31T02:38:10;13.80;99.90
7399;DHT22;3740;50.700;7.184;2022-10-31T02:43:26;13.60;99.90
7399;DHT22;3740;50.700;7.184;2022-10-31T02:46:00;13.60;99.90
7399;DHT22;3740;50.700;7.184;2022-10-31T02:48:28;13.70;99.90
7399;DHT22;3740;50.700;7.184;2022-10-31T02:50:58;13.70;99.90
7399;DHT22;3740;50.700;7.184;2022-10-31T02:53:25;13.70;99.90
7399;DHT22;3740;50.700;7.184;2022-10-31T02:56:00;13.80;99.90
7399;DHT22;3740;50.700;7.184;2022-10-31T02:58:30;13.70;99.90
7399;DHT22;3740;50.700;7.184;2022-10-31T03:01:18;13.80;99.90
7399;DHT22;3740;50.700;7.184;2022-10-31T03:04:00;13.70;99.90
7399;DHT22;3740;50.700;7.184;2022-10-31T03:06:53;13.70;99.90
7399;DHT22;3740;50.700;7.184;2022-10-31T03:09:51;13.70;99.90
7399;DHT22;3740;50.700;7.184;2022-10-31T03:12:39;13.60;99.90
7399;DHT22;3740;50.700;7.184;2022-10-31T03:15:21;13.60;99.90
7399;DHT22;3740;50.700;7.184;2022-10-31T03:18:26;13.60;99.90
7399;DHT22;3740;50.700;7.184;2022-10-31T03:20:55;13.60;99.90
7399;DHT22;3740;50.700;7.184;2022-10-31T03:23:25;13.60;99.90
7399;DHT22;3740;50.700;7.184;2022-10-31T03:25:53;13.70;99.90
7399;DHT22;3740;50.700;7.184;2022-10-31T03:28:23;13.70;99.90
7399;DHT22;3740;50.700;7.184;2022-10-31T03:30:52;13.70;99.90
7399;DHT22;3740;50.700;7.184;2022-10-31T03:33:24;13.70;99.90
7399;DHT22;3740;50.700;7.184;2022-10-31T03:35:53;13.70;99.90
7399;DHT22;3740;50.700;7.184;2022-10-31T03:38:21;13.70;99.90
7399;DHT22;3740;50.700;7.184;2022-10-31T03:40:48;13.70;99.90
7399;DHT22;3740;50.700;7.184;2022-10-31T03:43:21;13.70;99.90
7399;DHT22;3740;50.700;7.184;2022-10-31T03:45:49;13.60;99.90
7399;DHT22;3740;50.700;7.184;2022-10-31T03:48:16;13.50;99.90
7399;DHT22;3740;50.700;7.184;2022-10-31T03:50:59;13.60;99.90
7399;DHT22;3740;50.700;7.184;2022-10-31T03:53:34;13.50;99.90
7399;DHT22;3740;50.700;7.184;2022-10-31T03:56:17;13.50;99.90
7399;DHT22;3740;50.700;7.184;2022-10-31T04:01:55;13.60;99.90
7399;DHT22;3740;50.700;7.184;2022-10-31T04:04:22;13.60;99.90
7399;DHT22;3740;50.700;7.184;2022-10-31T04:06:52;13.60;99.90
7399;DHT22;3740;50.700;7.184;2022-10-31T04:09:19;13.50;99.90
7399;DHT22;3740;50.700;7.184;2022-10-31T04:11:50;13.50;99.90
7399;DHT22;3740;50.700;7.184;2022-10-31T04:14:16;13.50;99.90
7399;DHT22;3740;50.700;7.184;2022-10-31T04:16:43;13.50;99.90
7399;DHT22;3740;50.700;7.184;2022-10-31T04:19:10;13.50;99.90
7399;DHT22;3740;50.700;7.184;2022-10-31T04:21:37;13.40;99.90
7399;DHT22;3740;50.700;7.184;2022-10-31T04:24:03;13.40;99.90
7399;DHT22;3740;50.700;7.184;2022-10-31T04:26:28;13.30;99.90
7399;DHT22;3740;50.700;7.184;2022-10-31T04:28:54;13.30;99.90
7399;DHT22;3740;50.700;7.184;2022-10-31T04:31:20;13.40;99.90
7399;DHT22;3740;50.700;7.184;2022-10-31T04:33:46;13.30;99.90
7399;DHT22;3740;50.700;7.184;2022-10-31T04:36:11;13.40;99.90
7399;DHT22;3740;50.700;7.184;2022-10-31T04:38:37;13.40;99.90
7399;DHT22;3740;50.700;7.184;2022-10-31T04:41:02;13.40;99.90
7399;DHT22;3740;50.700;7.184;2022-10-31T04:43:28;13.40;99.90
7399;DHT22;3740;50.700;7.184;2022-10-31T04:45:54;13.30;99.90
7399;DHT22;3740;50.700;7.184;2022-10-31T04:48:19;13.40;99.90
7399;DHT22;3740;50.700;7.184;2022-10-31T04:50:45;13.30;99.90
7399;DHT22;3740;50.700;7.184;2022-10-31T04:53:10;13.30;99.90
7399;DHT22;3740;50.700;7.184;2022-10-31T04:55:36;13.30;99.90
7399;DHT22;3740;50.700;7.184;2022-10-31T04:58:02;13.20;99.90
7399;DHT22;3740;50.700;7.184;2022-10-31T05:00:27;13.20;99.90
7399;DHT22;3740;50.700;7.184;2022-10-31T05:02:55;13.20;99.90
7399;DHT22;3740;50.700;7.184;2022-10-31T05:05:24;13.20;99.90
7399;DHT22;3740;50.700;7.184;2022-10-31T05:07:50;13.20;99.90
7399;DHT22;3740;50.700;7.184;2022-10-31T05:10:21;13.30;99.90
7399;DHT22;3740;50.700;7.184;2022-10-31T05:12:58;13.30;99.90
7399;DHT22;3740;50.700;7.184;2022-10-31T05:15:25;13.30;99.90
7399;DHT22;3740;50.700;7.184;2022-10-31T05:17:52;13.30;99.90
7399;DHT22;3740;50.700;7.184;2022-10-31T05:20:19;13.30;99.90
7399;DHT22;3740;50.700;7.184;2022-10-31T05:22:52;13.20;99.90
7399;DHT22;3740;50.700;7.184;2022-10-31T05:25:20;13.20;99.90
7399;DHT22;3740;50.700;7.184;2022-10-31T05:27:48;13.20;99.90
7399;DHT22;3740;50.700;7.184;2022-10-31T05:30:17;13.20;99.90
7399;DHT22;3740;50.700;7.184;2022-10-31T05:32:45;13.20;99.90
7399;DHT22;3740;50.700;7.184;2022-10-31T05:35:14;13.10;99.90
7399;DHT22;3740;50.700;7.184;2022-10-31T05:37:40;13.20;99.90
7399;DHT22;3740;50.700;7.184;2022-10-31T05:40:08;13.20;99.90
7399;DHT22;3740;50.700;7.184;2022-10-31T05:42:34;13.20;99.90
7399;DHT22;3740;50.700;7.184;2022-10-31T05:45:00;13.30;99.90
7399;DHT22;3740;50.700;7.184;2022-10-31T05:47:30;13.30;99.90
7399;DHT22;3740;50.700;7.184;2022-10-31T05:49:56;13.30;99.90
7399;DHT22;3740;50.700;7.184;2022-10-31T05:52:30;13.20;99.90
7399;DHT22;3740;50.700;7.184;2022-10-31T05:54:55;13.20;99.90
7399;DHT22;3740;50.700;7.184;2022-10-31T05:57:21;13.20;99.90
7399;DHT22;3740;50.700;7.184;2022-10-31T05:59:47;13.20;99.90
7399;DHT22;3740;50.700;7.184;2022-10-31T06:02:12;13.10;99.90
7399;DHT22;3740;50.700;7.184;2022-10-31T06:04:38;13.10;99.90
7399;DHT22;3740;50.700;7.184;2022-10-31T06:07:04;13.00;99.90
7399;DHT22;3740;50.700;7.184;2022-10-31T06:09:31;13.00;99.90
7399;DHT22;3740;50.700;7.184;2022-10-31T06:11:56;13.00;99.90
7399;DHT22;3740;50.700;7.184;2022-10-31T06:14:22;13.00;99.90
7399;DHT22;3740;50.700;7.184;2022-10-31T06:16:47;13.10;99.90
7399;DHT22;3740;50.700;7.184;2022-10-31T06:19:13;13.10;99.90
7399;DHT22;3740;50.700;7.184;2022-10-31T06:21:38;13.10;99.90
7399;DHT22;3740;50.700;7.184;2022-10-31T06:24:04;13.60;99.90
7399;DHT22;3740;50.700;7.184;2022-10-31T06:26:30;13.20;99.90
7399;DHT22;3740;50.700;7.184;2022-10-31T06:28:55;13.20;99.90
7399;DHT22;3740;50.700;7.184;2022-10-31T06:31:21;13.20;99.90
7399;DHT22;3740;50.700;7.184;2022-10-31T06:33:47;13.20;99.90
7399;DHT22;3740;50.700;7.184;2022-10-31T06:36:12;13.20;99.90
7399;DHT22;3740;50.700;7.184;2022-10-31T06:38:38;13.20;99.90
7399;DHT22;3740;50.700;7.184;2022-10-31T06:41:04;13.20;99.90
7399;DHT22;3740;50.700;7.184;2022-10-31T06:43:30;13.20;99.90
7399;DHT22;3740;50.700;7.184;2022-10-31T06:45:56;13.20;99.90
7399;DHT22;3740;50.700;7.184;2022-10-31T06:48:22;13.30;99.90
7399;DHT22;3740;50.700;7.184;2022-10-31T06:50:48;13.40;99.90
7399;DHT22;3740;50.700;7.184;2022-10-31T06:53:14;13.50;99.90
7399;DHT22;3740;50.700;7.184;2022-10-31T06:55:40;13.50;99.90
7399;DHT22;3740;50.700;7.184;2022-10-31T06:58:06;13.60;99.90
7399;DHT22;3740;50.700;7.184;2022-10-31T07:00:33;13.60;99.90
7399;DHT22;3740;50.700;7.184;2022-10-31T07:03:04;13.70;99.90
7399;DHT22;3740;50.700;7.184;2022-10-31T07:05:31;13.70;99.90
7399;DHT22;3740;50.700;7.184;2022-10-31T07:08:03;13.70;99.90
7399;DHT22;3740;50.700;7.184;2022-10-31T07:10:30;13.80;99.90
7399;DHT22;3740;50.700;7.184;2022-10-31T07:13:01;13.80;99.90
7399;DHT22;3740;50.700;7.184;2022-10-31T07:15:29;13.80;99.90
7399;DHT22;3740;50.700;7.184;2022-10-31T07:18:00;13.80;99.90
7399;DHT22;3740;50.700;7.184;2022-10-31T07:20:27;13.80;99.90
7399;DHT22;3740;50.700;7.184;2022-10-31T07:23:00;13.80;99.90
7399;DHT22;3740;50.700;7.184;2022-10-31T07:25:26;13.80;99.90
7399;DHT22;3740;50.700;7.184;2022-10-31T07:27:52;13.80;99.90
7399;DHT22;3740;50.700;7.184;2022-10-31T07:30:18;13.90;99.90
7399;DHT22;3740;50.700;7.184;2022-10-31T07:32:49;14.00;99.90
7399;DHT22;3740;50.700;7.184;2022-10-31T07:35:22;14.00;99.90
7399;DHT22;3740;50.700;7.184;2022-10-31T07:37:48;14.10;99.90
7399;DHT22;3740;50.700;7.184;2022-10-31T07:40:15;14.20;99.90
7399;DHT22;3740;50.700;7.184;2022-10-31T07:42:42;14.20;99.90
7399;DHT22;3740;50.700;7.184;2022-10-31T07:45:10;14.20;99.90
7399;DHT22;3740;50.700;7.184;2022-10-31T07:47:39;14.30;99.90
7399;DHT22;3740;50.700;7.184;2022-10-31T07:50:05;14.30;99.90
7399;DHT22;3740;50.700;7.184;2022-10-31T07:52:31;14.30;99.90
7399;DHT22;3740;50.700;7.184;2022-10-31T07:54:56;14.30;99.90
7399;DHT22;3740;50.700;7.184;2022-10-31T07:57:22;14.30;99.90
7399;DHT22;3740;50.700;7.184;2022-10-31T07:59:48;14.40;99.90
7399;DHT22;3740;50.700;7.184;2022-10-31T08:02:13;14.50;99.90
7399;DHT22;3740;50.700;7.184;2022-10-31T08:04:39;14.50;99.90
7399;DHT22;3740;50.700;7.184;2022-10-31T08:07:05;14.60;99.90
7399;DHT22;3740;50.700;7.184;2022-10-31T08:09:32;14.70;99.90
7399;DHT22;3740;50.700;7.184;2022-10-31T08:11:57;14.70;99.90
7399;DHT22;3740;50.700;7.184;2022-10-31T08:14:23;14.80;99.90
7399;DHT22;3740;50.700;7.184;2022-10-31T08:16:48;14.70;99.90
7399;DHT22;3740;50.700;7.184;2022-10-31T08:19:14;14.70;99.90
7399;DHT22;3740;50.700;7.184;2022-10-31T08:21:39;14.70;99.90
7399;DHT22;3740;50.700;7.184;2022-10-31T08:24:05;14.70;99.90
7399;DHT22;3740;50.700;7.184;2022-10-31T08:26:31;14.80;99.90
7399;DHT22;3740;50.700;7.184;2022-10-31T08:28:57;14.80;99.90
7399;DHT22;3740;50.700;7.184;2022-10-31T08:31:22;14.90;99.90
7399;DHT22;3740;50.700;7.184;2022-10-31T08:33:49;14.90;99.90
7399;DHT22;3740;50.700;7.184;2022-10-31T08:36:14;14.90;99.90
7399;DHT22;3740;50.700;7.184;2022-10-31T08:38:40;14.90;99.90
7399;DHT22;3740;50.700;7.184;2022-10-31T08:41:05;15.10;99.90
7399;DHT22;3740;50.700;7.184;2022-10-31T08:43:31;15.10;99.90
7399;DHT22;3740;50.700;7.184;2022-10-31T08:45:56;15.30;99.90
7399;DHT22;3740;50.700;7.184;2022-10-31T08:48:22;15.20;99.90
7399;DHT22;3740;50.700;7.184;2022-10-31T08:50:48;15.30;99.90
7399;DHT22;3740;50.700;7.184;2022-10-31T08:53:19;15.30;99.90
7399;DHT22;3740;50.700;7.184;2022-10-31T08:55:46;15.30;99.90
7399;DHT22;3740;50.700;7.184;2022-10-31T08:58:18;15.30;99.90
7399;DHT22;3740;50.700;7.184;2022-10-31T09:00:46;15.30;99.90
7399;DHT22;3740;50.700;7.184;2022-10-31T09:03:15;15.40;99.90
7399;DHT22;3740;50.700;7.184;2022-10-31T09:05:41;15.40;99.90
7399;DHT22;3740;50.700;7.184;2022-10-31T09:08:08;15.40;99.90
7399;DHT22;3740;50.700;7.184;2022-10-31T09:10:35;15.30;99.90
7399;DHT22;3740;50.700;7.184;2022-10-31T09:13:06;15.40;99.90
7399;DHT22;3740;50.700;7.184;2022-10-31T09:15:34;15.50;99.90
7399;DHT22;3740;50.700;7.184;2022-10-31T09:18:00;15.60;99.90
7399;DHT22;3740;50.700;7.184;2022-10-31T09:20:26;15.80;99.90
7399;DHT22;3740;50.700;7.184;2022-10-31T09:22:56;15.80;99.90
7399;DHT22;3740;50.700;7.184;2022-10-31T09:25:22;15.90;99.90
7399;DHT22;3740;50.700;7.184;2022-10-31T09:27:48;15.90;99.90
7399;DHT22;3740;50.700;7.184;2022-10-31T09:30:13;16.00;99.90
7399;DHT22;3740;50.700;7.184;2022-10-31T09:32:39;16.10;99.90
7399;DHT22;3740;50.700;7.184;2022-10-31T09:35:05;16.30;99.90
7399;DHT22;3740;50.700;7.184;2022-10-31T09:37:31;16.30;99.90
7399;DHT22;3740;50.700;7.184;2022-10-31T09:39:57;16.40;99.90
7399;DHT22;3740;50.700;7.184;2022-10-31T09:42:29;16.50;99.90
7399;DHT22;3740;50.700;7.184;2022-10-31T09:50:45;18.10;99.90
7399;DHT22;3740;50.700;7.184;2022-10-31T09:56:00;20.30;99.90
7399;DHT22;3740;50.700;7.184;2022-10-31T09:58:28;21.30;99.90
7399;DHT22;3740;50.700;7.184;2022-10-31T10:00:58;22.00;99.90
7399;DHT22;3740;50.700;7.184;2022-10-31T10:03:41;22.40;99.90
7399;DHT22;3740;50.700;7.184;2022-10-31T10:06:21;22.80;99.90
7399;DHT22;3740;50.700;7.184;2022-10-31T10:08:48;23.20;99.90
7399;DHT22;3740;50.700;7.184;2022-10-31T10:15:27;23.40;99.90
7399;DHT22;3740;50.700;7.184;2022-10-31T10:17:33;23.30;99.90
7399;DHT22;3740;50.700;7.184;2022-10-31T10:20:28;22.70;99.90
7399;DHT22;3740;50.700;7.184;2022-10-31T10:25:40;21.70;99.90
7399;DHT22;3740;50.700;7.184;2022-10-31T10:31:20;21.00;99.90
7399;DHT22;3740;50.700;7.184;2022-10-31T10:36:44;20.30;99.90
7399;DHT22;3740;50.700;7.184;2022-10-31T10:39:21;20.20;99.90
7399;DHT22;3740;50.700;7.184;2022-10-31T10:41:49;20.10;99.90
7399;DHT22;3740;50.700;7.184;2022-10-31T10:44:37;20.10;99.90
7399;DHT22;3740;50.700;7.184;2022-10-31T10:47:22;20.20;99.90
7399;DHT22;3740;50.700;7.184;2022-10-31T10:50:15;20.40;99.90
7399;DHT22;3740;50.700;7.184;2022-10-31T10:58:09;20.20;99.90
7399;DHT22;3740;50.700;7.184;2022-10-31T11:00:38;19.90;99.90
7399;DHT22;3740;50.700;7.184;2022-10-31T11:03:05;19.70;99.90
7399;DHT22;3740;50.700;7.184;2022-10-31T11:05:50;19.60;99.90
7399;DHT22;3740;50.700;7.184;2022-10-31T11:08:27;19.50;99.90
7399;DHT22;3740;50.700;7.184;2022-10-31T11:13:27;19.50;99.90
7399;DHT22;3740;50.700;7.184;2022-10-31T11:16:09;19.50;99.90
7399;DHT22;3740;50.700;7.184;2022-10-31T11:18:44;19.70;99.90
7399;DHT22;3740;50.700;7.184;2022-10-31T11:21:29;19.80;99.90
7399;DHT22;3740;50.700;7.184;2022-10-31T11:26:36;19.70;99.90
7399;DHT22;3740;50.700;7.184;2022-10-31T11:29:04;19.80;99.90
7399;DHT22;3740;50.700;7.184;2022-10-31T11:31:32;19.80;99.90
7399;DHT22;3740;50.700;7.184;2022-10-31T11:34:03;19.90;99.90
7399;DHT22;3740;50.700;7.184;2022-10-31T11:36:30;20.00;99.90
7399;DHT22;3740;50.700;7.184;2022-10-31T11:38:59;20.20;99.90
7399;DHT22;3740;50.700;7.184;2022-10-31T11:41:30;20.20;99.90
7399;DHT22;3740;50.700;7.184;2022-10-31T11:46:34;20.40;99.90
7399;DHT22;3740;50.700;7.184;2022-10-31T11:49:00;20.50;99.90
7399;DHT22;3740;50.700;7.184;2022-10-31T11:51:32;20.40;99.90
7399;DHT22;3740;50.700;7.184;2022-10-31T11:53:59;20.30;99.90
7399;DHT22;3740;50.700;7.184;2022-10-31T11:56:37;20.20;99.90
7399;DHT22;3740;50.700;7.184;2022-10-31T11:59:05;20.20;99.90
7399;DHT22;3740;50.700;7.184;2022-10-31T12:01:32;20.10;99.90
7399;DHT22;3740;50.700;7.184;2022-10-31T12:04:08;20.10;99.90
7399;DHT22;3740;50.700;7.184;2022-10-31T12:06:42;20.10;99.90
7399;DHT22;3740;50.700;7.184;2022-10-31T12:09:21;20.20;99.90
7399;DHT22;3740;50.700;7.184;2022-10-31T12:17:57;19.70;99.90
7399;DHT22;3740;50.700;7.184;2022-10-31T12:20:47;19.60;99.90
7399;DHT22;3740;50.700;7.184;2022-10-31T12:23:33;19.60;99.90
7399;DHT22;3740;50.700;7.184;2022-10-31T12:26:13;19.60;99.90
7399;DHT22;3740;50.700;7.184;2022-10-31T12:31:27;19.70;99.90
7399;DHT22;3740;50.700;7.184;2022-10-31T12:40:05;19.30;99.90
7399;DHT22;3740;50.700;7.184;2022-10-31T12:45:14;19.10;99.90
7399;DHT22;3740;50.700;7.184;2022-10-31T12:56:27;18.80;99.90
7399;DHT22;3740;50.700;7.184;2022-10-31T13:02:15;18.60;99.90
7399;DHT22;3740;50.700;7.184;2022-10-31T13:04:48;18.60;99.90
7399;DHT22;3740;50.700;7.184;2022-10-31T13:07:52;18.50;99.90
7399;DHT22;3740;50.700;7.184;2022-10-31T13:12:39;18.40;99.90
7399;DHT22;3740;50.700;7.184;2022-10-31T13:15:15;18.50;99.90
7399;DHT22;3740;50.700;7.184;2022-10-31T13:17:57;18.50;99.90
7399;DHT22;3740;50.700;7.184;2022-10-31T13:20:28;18.60;99.90
7399;DHT22;3740;50.700;7.184;2022-10-31T13:23:10;18.70;99.90
7399;DHT22;3740;50.700;7.184;2022-10-31T13:25:42;18.80;99.90
7399;DHT22;3740;50.700;7.184;2022-10-31T13:28:12;18.90;99.90
7399;DHT22;3740;50.700;7.184;2022-10-31T13:30:41;19.00;99.90
7399;DHT22;3740;50.700;7.184;2022-10-31T13:33:17;19.10;99.90
7399;DHT22;3740;50.700;7.184;2022-10-31T13:36:00;19.20;99.90
7399;DHT22;3740;50.700;7.184;2022-10-31T13:38:37;19.10;99.90
7399;DHT22;3740;50.700;7.184;2022-10-31T13:44:24;19.10;99.90
7399;DHT22;3740;50.700;7.184;2022-10-31T13:46:51;19.00;99.90
7399;DHT22;3740;50.700;7.184;2022-10-31T13:52:14;18.70;99.90
7399;DHT22;3740;50.700;7.184;2022-10-31T13:54:45;18.50;99.90
7399;DHT22;3740;50.700;7.184;2022-10-31T13:59:59;18.40;99.90
7399;DHT22;3740;50.700;7.184;2022-10-31T14:02:31;18.30;99.90
7399;DHT22;3740;50.700;7.184;2022-10-31T14:05:04;18.30;99.90
7399;DHT22;3740;50.700;7.184;2022-10-31T14:07:31;18.20;99.90
7399;DHT22;3740;50.700;7.184;2022-10-31T14:10:16;18.20;99.90
7399;DHT22;3740;50.700;7.184;2022-10-31T14:12:46;18.30;99.90
7399;DHT22;3740;50.700;7.184;2022-10-31T14:15:25;18.30;99.90
7399;DHT22;3740;50.700;7.184;2022-10-31T14:17:55;18.40;99.90
7399;DHT22;3740;50.700;7.184;2022-10-31T14:22:58;18.30;99.90
7399;DHT22;3740;50.700;7.184;2022-10-31T14:25:31;18.30;99.90
7399;DHT22;3740;50.700;7.184;2022-10-31T14:27:59;18.20;99.90
7399;DHT22;3740;50.700;7.184;2022-10-31T14:30:27;18.20;99.90
7399;DHT22;3740;50.700;7.184;2022-10-31T14:33:12;18.20;99.90
7399;DHT22;3740;50.700;7.184;2022-10-31T14:44:19;18.20;99.90
7399;DHT22;3740;50.700;7.184;2022-10-31T14:47:10;18.20;99.90
7399;DHT22;3740;50.700;7.184;2022-10-31T14:52:24;18.30;99.90
7399;DHT22;3740;50.700;7.184;2022-10-31T14:54:53;18.30;99.90
7399;DHT22;3740;50.700;7.184;2022-10-31T14:57:27;18.30;99.90
7399;DHT22;3740;50.700;7.184;2022-10-31T15:00:01;18.30;99.90
7399;DHT22;3740;50.700;7.184;2022-10-31T15:02:41;18.40;99.90
7399;DHT22;3740;50.700;7.184;2022-10-31T15:05:10;18.30;99.90
7399;DHT22;3740;50.700;7.184;2022-10-31T15:07:47;18.30;99.90
7399;DHT22;3740;50.700;7.184;2022-10-31T15:10:28;18.40;99.90
7399;DHT22;3740;50.700;7.184;2022-10-31T15:12:55;18.50;99.90
7399;DHT22;3740;50.700;7.184;2022-10-31T15:15:27;18.50;99.90
7399;DHT22;3740;50.700;7.184;2022-10-31T15:17:58;18.50;99.90
7399;DHT22;3740;50.700;7.184;2022-10-31T15:20:27;18.50;99.90
7399;DHT22;3740;50.700;7.184;2022-10-31T15:22:56;18.50;99.90
7399;DHT22;3740;50.700;7.184;2022-10-31T15:25:24;18.50;99.90
7399;DHT22;3740;50.700;7.184;2022-10-31T15:27:52;18.50;99.90
7399;DHT22;3740;50.700;7.184;2022-10-31T15:30:23;18.40;99.90
7399;DHT22;3740;50.700;7.184;2022-10-31T15:32:49;18.40;99.90
7399;DHT22;3740;50.700;7.184;2022-10-31T15:35:22;18.40;99.90
7399;DHT22;3740;50.700;7.184;2022-10-31T15:37:48;18.30;99.90
7399;DHT22;3740;50.700;7.184;2022-10-31T15:40:15;18.30;99.90
7399;DHT22;3740;50.700;7.184;2022-10-31T15:42:42;18.20;99.90
7399;DHT22;3740;50.700;7.184;2022-10-31T15:47:37;18.10;99.90
7399;DHT22;3740;50.700;7.184;2022-10-31T15:50:17;18.00;99.90
7399;DHT22;3740;50.700;7.184;2022-10-31T15:52:46;18.00;99.90
7399;DHT22;3740;50.700;7.184;2022-10-31T15:55:19;17.90;99.90
7399;DHT22;3740;50.700;7.184;2022-10-31T15:57:57;17.80;99.90
7399;DHT22;3740;50.700;7.184;2022-10-31T16:00:30;17.80;99.90
7399;DHT22;3740;50.700;7.184;2022-10-31T16:03:23;17.70;99.90
7399;DHT22;3740;50.700;7.184;2022-10-31T16:06:01;17.70;99.90
7399;DHT22;3740;50.700;7.184;2022-10-31T16:11:16;17.60;99.90
7399;DHT22;3740;50.700;7.184;2022-10-31T16:16:41;17.50;99.90
7399;DHT22;3740;50.700;7.184;2022-10-31T16:22:00;17.50;99.90
7399;DHT22;3740;50.700;7.184;2022-10-31T16:24:32;17.40;99.90
7399;DHT22;3740;50.700;7.184;2022-10-31T16:27:05;17.40;99.90
7399;DHT22;3740;50.700;7.184;2022-10-31T16:29:46;17.40;99.90
7399;DHT22;3740;50.700;7.184;2022-10-31T16:32:37;17.30;99.90
7399;DHT22;3740;50.700;7.184;2022-10-31T16:37:45;17.30;99.90
7399;DHT22;3740;50.700;7.184;2022-10-31T16:40:11;17.30;99.90
7399;DHT22;3740;50.700;7.184;2022-10-31T16:42:38;17.20;99.90
7399;DHT22;3740;50.700;7.184;2022-10-31T16:45:07;17.20;99.90
7399;DHT22;3740;50.700;7.184;2022-10-31T16:47:33;17.10;99.90
7399;DHT22;3740;50.700;7.184;2022-10-31T16:49:59;17.10;99.90
7399;DHT22;3740;50.700;7.184;2022-10-31T16:52:25;17.10;99.90
7399;DHT22;3740;50.700;7.184;2022-10-31T16:54:51;17.00;99.90
7399;DHT22;3740;50.700;7.184;2022-10-31T16:57:26;17.00;99.90
7399;DHT22;3740;50.700;7.184;2022-10-31T16:59:52;16.90;99.90
7399;DHT22;3740;50.700;7.184;2022-10-31T17:02:21;16.90;99.90
7399;DHT22;3740;50.700;7.184;2022-10-31T17:04:48;16.90;99.90
7399;DHT22;3740;50.700;7.184;2022-10-31T17:07:14;16.90;99.90
7399;DHT22;3740;50.700;7.184;2022-10-31T17:09:40;16.90;99.90
7399;DHT22;3740;50.700;7.184;2022-10-31T17:12:09;16.90;99.90
7399;DHT22;3740;50.700;7.184;2022-10-31T17:14:39;16.90;99.90
7399;DHT22;3740;50.700;7.184;2022-10-31T17:17:04;16.80;99.90
7399;DHT22;3740;50.700;7.184;2022-10-31T17:19:30;16.80;99.90
7399;DHT22;3740;50.700;7.184;2022-10-31T17:21:55;16.70;99.90
7399;DHT22;3740;50.700;7.184;2022-10-31T17:24:21;16.70;99.90
7399;DHT22;3740;50.700;7.184;2022-10-31T17:26:46;16.70;99.90
7399;DHT22;3740;50.700;7.184;2022-10-31T17:29:12;16.70;99.90
7399;DHT22;3740;50.700;7.184;2022-10-31T17:31:37;16.70;99.90
7399;DHT22;3740;50.700;7.184;2022-10-31T17:34:04;16.70;99.90
7399;DHT22;3740;50.700;7.184;2022-10-31T17:36:31;16.70;99.90
7399;DHT22;3740;50.700;7.184;2022-10-31T17:38:57;16.70;99.90
7399;DHT22;3740;50.700;7.184;2022-10-31T17:41:22;16.70;99.90
7399;DHT22;3740;50.700;7.184;2022-10-31T17:43:48;16.70;99.90
7399;DHT22;3740;50.700;7.184;2022-10-31T17:46:13;16.60;99.90
7399;DHT22;3740;50.700;7.184;2022-10-31T17:48:39;16.60;99.90
7399;DHT22;3740;50.700;7.184;2022-10-31T17:51:05;16.60;99.90
7399;DHT22;3740;50.700;7.184;2022-10-31T17:53:33;16.60;99.90
7399;DHT22;3740;50.700;7.184;2022-10-31T17:56:00;16.60;99.90
7399;DHT22;3740;50.700;7.184;2022-10-31T17:58:26;16.60;99.90
7399;DHT22;3740;50.700;7.184;2022-10-31T18:00:52;16.60;99.90
7399;DHT22;3740;50.700;7.184;2022-10-31T18:03:17;16.60;99.90
7399;DHT22;3740;50.700;7.184;2022-10-31T18:05:57;16.60;99.90
7399;DHT22;3740;50.700;7.184;2022-10-31T18:08:28;16.60;99.90
7399;DHT22;3740;50.700;7.184;2022-10-31T18:10:55;16.70;99.90
7399;DHT22;3740;50.700;7.184;2022-10-31T18:13:21;16.80;99.90
7399;DHT22;3740;50.700;7.184;2022-10-31T18:15:48;16.80;99.90
7399;DHT22;3740;50.700;7.184;2022-10-31T18:18:14;16.80;99.90